createdAt,value
2017-11-12T00:01:20.656Z,26.30
2017-11-12T00:03:25.382Z,32.07
2017-11-12T00:05:27.994Z,36.13
2017-11-12T00:07:29.723Z,24.43
2017-11-12T00:09:30.889Z,29.93
2017-11-12T00:11:32.191Z,26.20
2017-11-12T00:13:33.293Z,30.50
2017-11-12T00:15:34.367Z,18.93
2017-11-12T00:17:35.532Z,35.90
2017-11-12T00:19:36.677Z,30.40
2017-11-12T00:21:37.692Z,19.47
2017-11-12T00:23:39.439Z,26.03
2017-11-12T00:25:43.322Z,27.50
2017-11-12T00:27:44.466Z,21.47
2017-11-12T00:29:45.455Z,25.27
2017-11-12T00:31:50.468Z,33.93
2017-11-12T00:33:59.220Z,26.50
2017-11-12T00:36:07.000Z,31.33
2017-11-12T00:38:08.094Z,20.50
2017-11-12T00:40:09.105Z,49.27
2017-11-12T00:42:10.342Z,24.83
2017-11-12T00:44:11.586Z,23.73
2017-11-12T00:48:21.743Z,33.90
2017-11-12T00:50:22.936Z,22.20
2017-11-12T00:52:24.045Z,23.67
2017-11-12T00:54:26.734Z,40.80
2017-11-12T00:56:27.925Z,21.23
2017-11-12T00:58:28.904Z,31.53
2017-11-12T01:00:31.444Z,32.90
2017-11-12T01:02:32.611Z,28.77
2017-11-12T01:04:33.612Z,25.23
2017-11-12T01:06:34.611Z,31.50
2017-11-12T01:08:35.636Z,25.40
2017-11-12T01:10:38.611Z,30.97
2017-11-12T01:12:39.728Z,28.13
2017-11-12T01:14:40.714Z,27.33
2017-11-12T01:16:41.683Z,26.17
2017-11-12T01:18:44.852Z,24.73
2017-11-12T01:20:46.007Z,28.03
2017-11-12T01:22:47.142Z,29.83
2017-11-12T01:24:48.400Z,34.27
2017-11-12T01:26:49.610Z,34.37
2017-11-12T01:28:50.789Z,30.57
2017-11-12T01:30:51.998Z,31.20
2017-11-12T01:32:53.606Z,22.07
2017-11-12T01:34:54.655Z,27.10
2017-11-12T01:36:55.697Z,25.90
2017-11-12T01:38:56.904Z,26.50
2017-11-12T01:41:00.423Z,23.30
2017-11-12T01:43:01.539Z,25.17
2017-11-12T01:45:02.597Z,25.67
2017-11-12T01:47:03.761Z,23.70
2017-11-12T01:49:04.788Z,25.57
2017-11-12T01:51:06.931Z,26.40
2017-11-12T01:53:08.367Z,23.47
2017-11-12T01:55:09.490Z,21.73
2017-11-12T01:57:10.559Z,34.83
2017-11-12T01:59:11.579Z,21.90
2017-11-12T02:01:12.876Z,36.80
2017-11-12T02:03:13.908Z,21.70
2017-11-12T02:05:14.938Z,31.70
2017-11-12T02:07:17.596Z,35.17
2017-11-12T02:09:22.448Z,24.60
2017-11-12T02:11:23.529Z,23.53
2017-11-12T02:13:24.864Z,19.87
2017-11-12T02:15:26.074Z,24.07
2017-11-12T02:17:27.119Z,41.00
2017-11-12T02:19:28.094Z,21.70
2017-11-12T02:21:29.965Z,33.27
2017-11-12T02:23:31.263Z,25.43
2017-11-12T02:25:32.987Z,26.40
2017-11-12T02:27:34.065Z,26.70
2017-11-12T02:29:35.114Z,24.80
2017-11-12T02:31:36.431Z,24.87
2017-11-12T02:33:39.137Z,21.50
2017-11-12T02:35:40.243Z,21.63
2017-11-12T02:37:41.213Z,24.90
2017-11-12T02:39:47.941Z,26.23
2017-11-12T02:41:49.154Z,35.33
2017-11-12T02:43:50.154Z,25.53
2017-11-12T02:45:51.182Z,25.10
2017-11-12T02:47:52.686Z,28.60
2017-11-12T02:49:53.950Z,17.70
2017-11-12T02:51:55.006Z,28.87
2017-11-12T02:53:56.000Z,28.13
2017-11-12T02:55:58.015Z,27.10
2017-11-12T02:58:00.262Z,30.20
2017-11-12T03:00:02.336Z,29.23
2017-11-12T03:02:03.495Z,24.40
2017-11-12T03:04:04.555Z,32.87
2017-11-12T03:06:05.572Z,21.80
2017-11-12T03:08:09.477Z,28.50
2017-11-12T03:10:10.636Z,25.90
2017-11-12T03:12:11.633Z,29.27
2017-11-12T03:14:13.927Z,27.00
2017-11-12T03:16:14.958Z,25.53
2017-11-12T03:18:15.930Z,23.70
2017-11-12T03:20:19.421Z,26.57
2017-11-12T03:22:20.490Z,27.40
2017-11-12T03:26:34.671Z,25.37
2017-11-12T03:28:35.785Z,33.20
2017-11-12T03:30:37.204Z,27.17
2017-11-12T03:32:38.757Z,33.83
2017-11-12T03:37:04.584Z,26.73
2017-11-12T03:39:05.611Z,24.93
2017-11-12T03:41:06.606Z,20.17
2017-11-12T03:45:35.575Z,28.07
2017-11-12T03:47:44.962Z,25.43
2017-11-12T03:49:45.991Z,24.77
2017-11-12T03:51:47.041Z,19.53
2017-11-12T03:53:48.057Z,24.23
2017-11-12T03:56:08.212Z,25.53
2017-11-12T04:00:47.943Z,24.60
2017-11-12T04:02:49.069Z,35.87
2017-11-12T04:04:50.549Z,25.50
2017-11-12T04:06:51.582Z,23.77
2017-11-12T04:08:52.654Z,30.80
2017-11-12T04:10:53.683Z,22.97
2017-11-12T04:12:55.351Z,27.50
2017-11-12T04:14:57.684Z,35.80
2017-11-12T04:19:36.657Z,25.80
2017-11-12T04:21:37.702Z,28.57
2017-11-12T04:23:38.783Z,33.73
2017-11-12T04:25:43.038Z,34.73
2017-11-12T04:27:44.097Z,36.77
2017-11-12T04:32:14.618Z,30.30
2017-11-12T04:34:20.589Z,30.13
2017-11-12T04:36:21.593Z,44.80
2017-11-12T04:38:27.821Z,31.57
2017-11-12T04:40:28.931Z,30.23
2017-11-12T04:44:47.270Z,33.53
2017-11-12T04:54:21.678Z,29.37
2017-11-12T04:56:22.821Z,36.03
2017-11-12T04:58:24.461Z,37.97
2017-11-12T05:03:05.524Z,44.33
2017-11-12T05:05:06.616Z,37.87
2017-11-12T05:07:15.949Z,41.03
2017-11-12T05:09:21.495Z,39.13
2017-11-12T05:11:36.311Z,48.33
2017-11-12T05:16:31.560Z,32.13
2017-11-12T05:18:38.750Z,30.13
2017-11-12T05:23:09.354Z,36.40
2017-11-12T05:25:41.210Z,51.73
2017-11-12T05:27:42.701Z,40.87
2017-11-12T05:30:09.738Z,36.63
2017-11-12T05:32:11.306Z,35.23
2017-11-12T05:36:40.529Z,32.07
2017-11-12T05:38:41.571Z,35.43
2017-11-12T05:40:43.174Z,36.03
2017-11-12T05:45:26.846Z,43.13
2017-11-12T05:47:28.096Z,58.00
2017-11-12T05:49:29.143Z,42.27
2017-11-12T05:53:58.118Z,52.20
2017-11-12T05:58:26.702Z,52.67
2017-11-12T06:02:55.224Z,45.30
2017-11-12T06:04:56.545Z,39.37
2017-11-12T06:07:10.147Z,45.13
2017-11-12T06:09:11.306Z,43.97
2017-11-12T06:11:12.375Z,55.33
2017-11-12T06:20:38.381Z,56.80
2017-11-12T06:22:39.427Z,55.20
2017-11-12T06:24:40.408Z,39.30
2017-11-12T06:26:44.347Z,56.57
2017-11-12T06:31:23.817Z,48.63
2017-11-12T06:33:25.287Z,43.60
2017-11-12T06:35:26.380Z,46.00
2017-11-12T06:37:27.504Z,46.77
2017-11-12T06:41:52.309Z,37.07
2017-11-12T06:43:54.482Z,45.73
2017-11-12T06:46:10.014Z,39.73
2017-11-12T06:48:15.296Z,43.47
2017-11-12T06:50:23.411Z,60.37
2017-11-12T06:52:26.268Z,49.37
2017-11-12T06:54:27.410Z,54.07
2017-11-12T06:56:28.535Z,74.53
2017-11-12T07:01:07.160Z,55.83
2017-11-12T07:03:11.523Z,56.57
2017-11-12T07:05:13.152Z,50.90
2017-11-12T07:07:14.323Z,56.10
2017-11-12T07:09:15.543Z,59.97
2017-11-12T07:11:17.456Z,70.60
2017-11-12T07:13:22.282Z,59.00
2017-11-12T07:15:23.414Z,63.93
2017-11-12T07:17:24.469Z,71.47
2017-11-12T07:19:25.472Z,73.40
2017-11-12T07:21:26.444Z,64.77
2017-11-12T07:23:27.994Z,64.23
2017-11-12T07:25:29.000Z,65.13
2017-11-12T07:27:30.278Z,53.03
2017-11-12T07:29:33.194Z,70.93
2017-11-12T07:31:34.356Z,65.77
2017-11-12T07:33:35.540Z,66.73
2017-11-12T07:35:36.769Z,78.60
2017-11-12T07:37:37.958Z,67.40
2017-11-12T07:39:39.113Z,66.93
2017-11-12T07:41:40.115Z,61.63
2017-11-12T07:43:41.098Z,61.07
2017-11-12T07:45:48.443Z,64.90
2017-11-12T07:47:52.044Z,56.17
2017-11-12T07:52:10.093Z,54.97
2017-11-12T07:56:48.973Z,45.70
2017-11-12T07:59:02.144Z,59.73
2017-11-12T08:01:04.524Z,64.77
2017-11-12T08:03:06.784Z,59.00
2017-11-12T08:05:10.573Z,56.70
2017-11-12T08:07:13.796Z,52.67
2017-11-12T08:09:14.946Z,53.20
2017-11-12T08:11:15.992Z,55.67
2017-11-12T08:13:17.019Z,49.53
2017-11-12T08:15:18.266Z,50.80
2017-11-12T08:17:19.312Z,51.27
2017-11-12T08:19:26.916Z,56.10
2017-11-12T08:21:28.035Z,55.80
2017-11-12T08:23:29.914Z,66.40
2017-11-12T08:25:33.211Z,53.73
2017-11-12T08:27:34.874Z,47.13
2017-11-12T08:29:36.184Z,59.20
2017-11-12T08:31:37.458Z,50.00
2017-11-12T08:33:38.579Z,68.53
2017-11-12T08:35:40.855Z,52.00
2017-11-12T08:37:45.503Z,70.37
2017-11-12T08:42:15.309Z,59.83
2017-11-12T08:44:16.477Z,67.33
2017-11-12T08:46:19.271Z,60.43
2017-11-12T08:48:20.531Z,66.80
2017-11-12T08:50:21.802Z,62.07
2017-11-12T08:52:22.885Z,60.33
2017-11-12T08:54:24.884Z,59.53
2017-11-12T08:56:26.043Z,60.57
2017-11-12T08:58:27.521Z,55.73
2017-11-12T09:00:28.594Z,65.87
2017-11-12T09:02:30.272Z,51.23
2017-11-12T09:04:32.102Z,65.13
2017-11-12T09:06:33.235Z,74.13
2017-11-12T09:08:35.039Z,64.17
2017-11-12T09:10:36.248Z,84.25
2017-11-12T09:12:37.522Z,78.73
2017-11-12T09:14:39.868Z,81.13
2017-11-12T09:16:41.145Z,67.03
2017-11-12T09:18:42.976Z,67.30
2017-11-12T09:20:45.932Z,80.43
2017-11-12T09:22:47.005Z,67.17
2017-11-12T09:24:59.125Z,65.77
2017-11-12T09:27:00.890Z,71.03
2017-11-12T09:29:02.633Z,64.43
2017-11-12T09:31:03.646Z,69.57
2017-11-12T09:33:04.635Z,56.40
2017-11-12T09:35:05.678Z,69.90
2017-11-12T09:37:06.680Z,70.63
2017-11-12T09:39:07.764Z,74.73
2017-11-12T09:41:08.776Z,62.90
2017-11-12T09:43:09.880Z,60.80
2017-11-12T09:45:10.936Z,80.72
2017-11-12T09:47:12.745Z,73.17
2017-11-12T09:49:13.766Z,66.90
2017-11-12T09:51:17.449Z,63.60
2017-11-12T09:53:18.619Z,62.37
2017-11-12T09:55:19.658Z,67.77
2017-11-12T09:57:20.651Z,54.87
2017-11-12T09:59:21.654Z,64.20
2017-11-12T10:01:22.636Z,47.37
2017-11-12T10:03:23.610Z,54.97
2017-11-12T10:05:24.625Z,49.80
2017-11-12T10:07:25.679Z,63.87
2017-11-12T10:09:26.730Z,48.40
2017-11-12T10:12:15.780Z,56.93
2017-11-12T10:14:17.754Z,58.27
2017-11-12T10:16:26.241Z,49.47
2017-11-12T10:18:27.336Z,63.27
2017-11-12T10:20:28.440Z,43.40
2017-11-12T10:22:29.472Z,54.40
2017-11-12T10:24:30.563Z,79.27
2017-11-12T10:26:31.595Z,70.27
2017-11-12T10:28:33.342Z,49.10
2017-11-12T10:30:34.294Z,41.63
2017-11-12T10:32:47.493Z,45.10
2017-11-12T10:34:48.524Z,44.00
2017-11-12T10:36:49.512Z,48.63
2017-11-12T10:38:57.358Z,33.53
2017-11-12T10:40:59.473Z,39.67
2017-11-12T10:43:01.497Z,44.13
2017-11-12T10:45:06.598Z,45.73
2017-11-12T10:52:22.668Z,29.93
2017-11-12T10:54:23.709Z,39.47
2017-11-12T10:56:24.752Z,26.60
2017-11-12T10:58:25.757Z,45.17
2017-11-12T11:00:26.756Z,44.87
2017-11-12T11:02:44.861Z,40.43
2017-11-12T11:04:45.866Z,33.80
2017-11-12T11:06:46.905Z,33.40
2017-11-12T11:08:47.878Z,31.27
2017-11-12T11:10:48.890Z,23.43
2017-11-12T11:12:49.953Z,33.53
2017-11-12T11:14:51.671Z,35.83
2017-11-12T11:16:53.501Z,31.17
2017-11-12T11:18:55.295Z,25.77
2017-11-12T11:20:56.344Z,28.00
2017-11-12T11:22:57.414Z,29.87
2017-11-12T11:24:58.405Z,25.10
2017-11-12T11:26:59.467Z,25.27
2017-11-12T11:29:00.517Z,32.47
2017-11-12T11:31:14.400Z,24.83
2017-11-12T11:33:15.413Z,26.80
2017-11-12T11:35:16.442Z,24.60
2017-11-12T11:37:17.511Z,23.03
2017-11-12T11:39:18.595Z,18.03
2017-11-12T11:41:19.747Z,20.47
2017-11-12T12:09:15.648Z,26.23
2017-11-12T12:11:16.802Z,22.27
2017-11-12T12:13:17.906Z,27.07
2017-11-12T12:15:19.826Z,30.47
2017-11-12T12:17:21.217Z,25.17
2017-11-12T12:19:22.304Z,31.80
2017-11-12T12:21:23.399Z,31.40
2017-11-12T12:23:24.430Z,33.37
2017-11-12T12:25:25.535Z,30.10
2017-11-12T12:27:28.643Z,26.97
2017-11-12T12:29:29.811Z,23.33
2017-11-12T12:31:31.042Z,23.63
2017-11-12T12:33:32.278Z,21.40
2017-11-12T12:35:34.215Z,8.30
2017-11-12T12:37:35.553Z,15.47
2017-11-12T12:39:47.720Z,10.80
2017-11-12T12:41:49.025Z,12.93
2017-11-12T12:43:50.138Z,10.40
2017-11-12T12:45:51.199Z,7.23
2017-11-12T12:47:52.286Z,7.97
2017-11-12T12:49:54.306Z,9.13
2017-11-12T12:51:55.650Z,9.53
2017-11-12T12:54:18.125Z,10.77
2017-11-12T12:56:23.077Z,12.63
2017-11-12T12:58:26.476Z,13.53
2017-11-12T13:00:31.888Z,9.03
2017-11-12T13:02:35.262Z,11.00
2017-11-12T13:07:35.070Z,13.27
2017-11-12T13:09:36.200Z,14.10
2017-11-12T13:11:38.097Z,41.70
2017-11-12T13:13:39.283Z,30.53
2017-11-12T13:15:40.469Z,36.07
2017-11-12T13:22:58.335Z,27.27
2017-11-12T13:27:52.270Z,66.43
2017-11-12T13:30:14.579Z,41.33
2017-11-12T13:32:16.467Z,29.10
2017-11-12T13:34:17.674Z,20.30
2017-11-12T13:36:18.723Z,19.87
2017-11-12T13:38:19.772Z,18.13
2017-11-12T13:40:20.830Z,19.50
2017-11-12T13:42:21.921Z,19.20
2017-11-12T13:44:23.737Z,19.17
2017-11-12T13:46:24.788Z,20.17
2017-11-12T13:48:26.038Z,19.87
2017-11-12T13:50:27.108Z,14.40
2017-11-12T13:52:28.582Z,14.67
2017-11-12T13:54:29.793Z,20.47
2017-11-12T13:56:30.902Z,16.13
2017-11-12T13:58:31.955Z,19.60
2017-11-12T14:00:33.014Z,19.53
2017-11-12T14:02:40.470Z,23.13
2017-11-12T14:04:41.680Z,28.00
2017-11-12T14:06:42.709Z,26.37
2017-11-12T14:08:43.771Z,22.80
2017-11-12T14:10:52.392Z,15.60
2017-11-12T14:13:00.077Z,26.40
2017-11-12T14:15:13.326Z,26.63
2017-11-12T14:17:14.508Z,20.27
2017-11-12T14:19:15.804Z,14.20
2017-11-12T14:21:16.980Z,21.40
2017-11-12T14:23:18.325Z,18.73
2017-11-12T14:25:19.420Z,20.90
2017-11-12T14:27:20.554Z,19.50
2017-11-12T14:29:21.694Z,19.53
2017-11-12T14:31:22.834Z,14.23
2017-11-12T14:33:23.887Z,14.73
2017-11-12T14:35:25.721Z,16.70
2017-11-12T15:19:04.367Z,8.90
2017-11-12T15:21:05.383Z,11.80
2017-11-12T15:23:07.206Z,8.33
2017-11-12T15:25:08.201Z,10.13
2017-11-12T15:27:09.225Z,7.50
2017-11-12T15:29:10.293Z,9.00
2017-11-12T15:31:11.560Z,11.73
2017-11-12T15:33:12.733Z,7.73
2017-11-12T15:35:13.804Z,9.77
2017-11-12T15:37:14.878Z,9.50
2017-11-12T15:39:16.079Z,9.93
2017-11-12T15:41:17.910Z,8.07
2017-11-12T15:43:19.045Z,10.40
2017-11-12T15:45:20.078Z,8.20
2017-11-12T15:47:30.176Z,8.30
2017-11-12T15:49:31.290Z,10.30
2017-11-12T15:51:32.297Z,11.50
2017-11-12T15:53:33.331Z,11.40
2017-11-12T15:55:34.325Z,10.87
2017-11-12T15:57:35.397Z,9.63
2017-11-12T15:59:36.948Z,8.40
2017-11-12T16:01:38.029Z,9.93
2017-11-12T16:03:39.038Z,10.20
2017-11-12T16:05:40.010Z,9.73
2017-11-12T16:07:41.035Z,12.30
2017-11-12T16:09:42.703Z,11.37
2017-11-12T16:11:44.303Z,11.67
2017-11-12T16:13:45.366Z,9.10
2017-11-12T16:15:46.365Z,11.47
2017-11-12T16:17:49.306Z,11.50
2017-11-12T16:19:50.402Z,12.47
2017-11-12T16:21:51.490Z,11.90
2017-11-12T16:23:53.448Z,13.07
2017-11-12T16:25:54.560Z,11.90
2017-11-12T16:27:56.363Z,11.30
2017-11-12T16:29:58.061Z,14.03
2017-11-12T16:32:00.679Z,16.23
2017-11-12T16:34:01.756Z,22.83
2017-11-12T16:36:02.878Z,14.33
2017-11-12T16:38:03.967Z,13.87
2017-11-12T16:40:04.982Z,14.40
2017-11-12T16:42:05.979Z,19.03
2017-11-12T16:44:06.996Z,18.90
2017-11-12T16:46:07.993Z,18.50
2017-11-12T16:48:09.058Z,19.13
2017-11-12T16:50:10.034Z,21.73
2017-11-12T16:52:11.041Z,28.03
2017-11-12T16:54:12.092Z,20.73
2017-11-12T16:56:13.095Z,25.90
2017-11-12T16:58:14.188Z,24.63
2017-11-12T17:00:15.204Z,27.80
2017-11-12T17:02:16.215Z,28.07
2017-11-12T17:04:21.748Z,24.50
2017-11-12T17:06:22.959Z,30.33
2017-11-12T17:08:24.150Z,30.83
2017-11-12T17:10:28.211Z,29.40
2017-11-12T17:12:29.432Z,28.10
2017-11-12T17:16:39.387Z,30.40
2017-11-12T17:18:40.491Z,30.30
2017-11-12T17:20:41.672Z,29.53
2017-11-12T17:22:42.837Z,33.17
2017-11-12T17:24:43.958Z,27.00
2017-11-12T17:26:45.115Z,29.70
2017-11-12T17:28:46.226Z,29.60
2017-11-12T17:33:21.235Z,35.27
2017-11-12T17:35:22.405Z,31.53
2017-11-12T17:37:23.481Z,33.77
2017-11-12T17:41:35.930Z,32.97
2017-11-12T17:43:37.180Z,34.33
2017-11-12T17:45:57.342Z,35.23
2017-11-12T17:48:02.848Z,34.90
2017-11-12T17:50:04.571Z,33.93
2017-11-12T17:52:05.553Z,34.47
2017-11-12T17:54:06.526Z,37.93
2017-11-12T17:56:07.507Z,42.37
2017-11-12T17:58:08.570Z,42.27
2017-11-12T18:00:10.568Z,44.47
2017-11-12T18:02:11.728Z,42.57
2017-11-12T18:04:13.575Z,49.17
2017-11-12T18:06:15.851Z,44.63
2017-11-12T18:08:17.076Z,48.87
2017-11-12T18:10:18.109Z,51.53
2017-11-12T18:12:19.112Z,46.77
2017-11-12T18:14:20.702Z,48.57
2017-11-12T18:16:22.305Z,50.30
2017-11-12T18:18:34.698Z,47.13
2017-11-12T18:20:35.758Z,56.03
2017-11-12T18:22:37.834Z,58.43
2017-11-12T18:24:39.078Z,60.10
2017-11-12T18:29:06.924Z,50.40
2017-11-12T18:31:09.015Z,50.57
2017-11-12T18:33:18.677Z,62.97
2017-11-12T18:38:08.949Z,62.27
2017-11-12T18:45:38.572Z,62.33
2017-11-12T18:47:45.130Z,56.20
2017-11-12T18:52:11.258Z,62.97
2017-11-12T18:54:12.493Z,62.20
2017-11-12T18:56:19.654Z,65.93
2017-11-12T18:58:22.406Z,65.70
2017-11-12T19:45:55.337Z,52.77
2017-11-12T19:48:04.963Z,62.27
2017-11-12T19:50:13.662Z,69.40
2017-11-12T19:55:20.273Z,73.47
2017-11-12T20:00:18.600Z,67.20
2017-11-12T20:31:36.540Z,72.67
2017-11-12T20:33:38.049Z,73.53
2017-11-12T20:38:30.926Z,72.40
2017-11-12T20:40:41.329Z,59.73
2017-11-12T20:42:53.031Z,61.53
2017-11-12T20:44:55.645Z,69.20
2017-11-12T20:47:08.421Z,57.00
2017-11-12T20:49:09.637Z,54.33
2017-11-12T20:51:13.799Z,59.30
2017-11-12T20:55:53.107Z,57.50
2017-11-12T20:57:54.173Z,56.40
2017-11-12T20:59:55.350Z,53.57
2017-11-12T21:01:57.104Z,50.43
2017-11-12T21:04:14.986Z,53.50
2017-11-12T21:11:37.813Z,48.00
2017-11-12T21:13:39.005Z,51.83
2017-11-12T21:15:40.277Z,49.53
2017-11-12T21:17:41.744Z,48.80
2017-11-12T21:19:43.738Z,51.83
2017-11-12T21:21:45.778Z,52.67
2017-11-12T21:23:47.996Z,62.23
2017-11-12T21:25:49.226Z,57.40
2017-11-12T21:27:50.375Z,53.37
2017-11-12T21:29:53.415Z,56.03
2017-11-12T21:31:55.584Z,55.80
2017-11-12T21:34:13.737Z,66.97
2017-11-12T21:36:14.862Z,57.40
2017-11-12T21:45:49.353Z,55.77
2017-11-12T21:47:50.429Z,55.37
2017-11-12T21:49:51.509Z,56.57
2017-11-12T21:51:52.561Z,57.80
2017-11-12T21:53:54.101Z,52.30
2017-11-12T21:55:55.297Z,60.10
2017-11-12T21:58:00.224Z,56.57
2017-11-12T22:05:06.260Z,54.83
2017-11-12T22:07:07.500Z,56.63
2017-11-12T22:09:24.586Z,57.43
2017-11-12T22:13:53.725Z,66.40
2017-11-12T22:18:41.675Z,52.80
2017-11-12T22:20:43.156Z,48.93
2017-11-12T22:22:44.930Z,54.40
2017-11-12T22:24:46.958Z,56.00
2017-11-12T22:26:56.190Z,50.50
2017-11-12T22:28:57.402Z,57.00
2017-11-12T22:30:59.174Z,53.27
2017-11-12T22:33:00.919Z,56.00
2017-11-12T22:35:04.694Z,61.70
2017-11-12T22:37:05.932Z,51.77
2017-11-12T22:39:06.991Z,60.80
2017-11-12T22:43:37.047Z,60.83
2017-11-12T22:45:38.118Z,62.37
2017-11-12T22:50:16.699Z,65.97
2017-11-12T22:52:17.893Z,59.40
2017-11-12T22:54:19.512Z,69.20
2017-11-12T22:56:21.095Z,63.57
2017-11-12T22:58:22.300Z,68.80
2017-11-12T23:00:24.046Z,77.00
2017-11-12T23:02:49.338Z,73.63
2017-11-12T23:07:18.443Z,69.40
2017-11-12T23:19:22.863Z,70.33
2017-11-12T23:21:24.297Z,70.90
2017-11-12T23:23:25.836Z,70.63
2017-11-12T23:25:38.935Z,71.60
2017-11-12T23:27:45.252Z,63.43
2017-11-12T23:32:41.502Z,79.73
2017-11-12T23:34:42.674Z,68.73
2017-11-12T23:36:44.190Z,60.80
2017-11-12T23:38:46.227Z,67.27
2017-11-12T23:40:54.231Z,56.47
2017-11-12T23:42:55.652Z,73.83
2017-11-12T23:47:15.350Z,66.70
2017-11-12T23:49:16.448Z,60.40
2017-11-12T23:51:23.993Z,59.83
2017-11-12T23:53:25.266Z,62.50
2017-11-12T23:55:26.390Z,59.80
